Felton, CA

9:39 PM PDT on August 27, 2014 (GMT -0700)
APRSWXNET Felton CA US | Change Station
CLOSE
Current Station
Personal Weather Station
Location: Ben Lomond, CA
Elevation: 659 ft
Nearby Weather Stations

Elev 659 ft 37.10 °N, 122.05 °W | Updated 25 days ago

Partly Cloudy
Partly Cloudy
63 °F
Feels Like 63 °F
N
0
Wind Variable Wind from South
Gusts 1 mph

Today
High -- | Low -- °F
--% Chance of Precip.
Yesterday
High -- | Low -- °F
Precip. -- in
6:34 AM 7:43 PM
Waxing Crescent, 6% visible
Pressure 30.06 in
Visibility 10.0 miles
Clouds Overcast 700 ft
Dew Point 57 °F
Humidity 84%
Rainfall 0.00 in
Snow Depth Not available.
UV 0 out of 12
Pollen 7.00 out of 12
Ozone Good
PM2.5 Good
Flu Activity Not available.
METAR KWVI 280353Z AUTO 17003KT 10SM OVC007 18/15 A3007 RMK AO2 SLP180 T01780150

More Conditions Fewer Conditions

Pressure 30.06 in
Visibility 10.0 miles
Clouds Overcast 700 ft
Dew Point 57 °F
Humidity 84%
Rainfall 0.00 in
Snow Depth Not available.
UV 0 out of 12
Pollen 7.00 out of 12
Ozone Good
PM2.5 Good
Flu Activity Not available.
METAR KWVI 280353Z AUTO 17003KT 10SM OVC007 18/15 A3007 RMK AO2 SLP180 T01780150

More Conditions Fewer Conditions

10-Day Weather Forecast

Almanac

Astronomy

Aug. 27, 2014 Rise Set
Actual Time 6:34 AM PDT 7:43 PM PDT
Civil Twilight 6:08 AM PDT 8:10 PM PDT
Nautical Twilight 5:35 AM PDT 8:42 PM PDT
Astronomical Twilight 5:02 AM PDT 9:15 PM PDT
Moon 8:32 AM PDT (8/27) 8:43 PM PDT (8/27)
Length of Visible Light 14h 02m
Length of Day
13h 08m
Tomorrow will be 2m 15s shorter.
Waxing Crescent, 6% of the Moon is Illuminated
Aug 28
Waxing Crescent
Sep 2
First Quarter
Sep 8
Full
Sep 15
Last Quarter
Sep 24
New

Today's Extremes

State Highs State Lows

Community

WunderPhotos

Upload Photos

1,747,907 photos uploaded!

Nearby

Air Quality

  Air Quality AQ Index Pollutant
Yesterday Good
OZONE
Yesterday Good
PM2.5
Current Good
OZONE
Current Good
PM2.5
Wednesday Good
OZONE
Thursday Good
OZONE
Friday Good
OZONE
Saturday Good
OZONE
Sunday Good
OZONE
Monday Good
OZONE

Snow Depth

Station Depth Elevation
Leavitt Lake 0 in 9400 ft
Blue Lakes 0 in 8000 ft
Leavitt Meadows 1 in 7200 ft
Echo Peak 0 in 7800 ft
Summit Meadow 0 in 9122 ft

Earthquake Activity

City Distance Mag. Time & Date
Napa, California 80 miles 2.6 11:57 AM PDT
2014-08-27
The Geysers, California 125 miles 2.6 7:42 AM PDT
2014-08-27
Soledad, California 64 miles 2.6 12:15 PM PDT
2014-08-26
Napa, California 79 miles 2.5 10:56 AM PDT
2014-08-26
Minimum magnitude displayed is 2.5.

Coastal Water Temperatures

Place Temperature
Monterey, CA 64.9 °F
Redwood City, CA 73.9 °F

Nearby Weather Stations